Argyle, Michigan
Current Conditions -  °F | °C
As of 8:35 PM on Thursday 27 Nov 2014 (Local Time) from KBAX Reporting Station
Light Snow Light Snow  
Wind Chill: -12°   Ceiling: 3800
Heat Index: -5°   Visibility: 10mi
Dew Point: -10°   Wind: 13mph
Humidity: 71%   Direction: 310°NW
Pressure: 30.25"   Gusts: 21mph
Location:  43.56°N, 82.94°W
Report Text: KBAX 280135Z AUTO 31011G18KT 10SM -SN OVC038 M05/M09 A3025 RMK AO2 T10501095
Loading
Personal Weather Stations






























Interactive Weather Map New forecast layout! Learn more

10-Day Weather Forecast

Advertisements
Track Severe Weather on mobile